sensor_id;sensor_type;location;lat;lon;timestamp;P1;durP1;ratioP1;P2;durP2;ratioP2
14080;SDS011;7116;52.152;5.392;2023-07-31T00:22:43;2.40;;;1.70;;
14080;SDS011;7116;52.152;5.392;2023-07-31T00:25:18;2.60;;;1.93;;
14080;SDS011;7116;52.152;5.392;2023-07-31T00:27:54;4.93;;;2.10;;
14080;SDS011;7116;52.152;5.392;2023-07-31T00:30:39;2.83;;;1.90;;
14080;SDS011;7116;52.152;5.392;2023-07-31T00:33:04;2.22;;;2.03;;
14080;SDS011;7116;52.152;5.392;2023-07-31T00:35:53;3.20;;;2.13;;
14080;SDS011;7116;52.152;5.392;2023-07-31T00:38:28;5.30;;;2.70;;
14080;SDS011;7116;52.152;5.392;2023-07-31T00:41:03;3.72;;;2.70;;
14080;SDS011;7116;52.152;5.392;2023-07-31T00:46:35;4.80;;;2.88;;
14080;SDS011;7116;52.152;5.392;2023-07-31T00:52:09;7.40;;;3.70;;
14080;SDS011;7116;52.152;5.392;2023-07-31T00:54:54;14.50;;;4.22;;
14080;SDS011;7116;52.152;5.392;2023-07-31T00:57:20;11.87;;;4.73;;
14080;SDS011;7116;52.152;5.392;2023-07-31T00:59:45;11.03;;;4.30;;
14080;SDS011;7116;52.152;5.392;2023-07-31T01:02:30;10.63;;;4.50;;
14080;SDS011;7116;52.152;5.392;2023-07-31T01:04:58;15.40;;;5.65;;
14080;SDS011;7116;52.152;5.392;2023-07-31T01:07:42;13.02;;;5.13;;
14080;SDS011;7116;52.152;5.392;2023-07-31T01:10:15;16.00;;;5.13;;
14080;SDS011;7116;52.152;5.392;2023-07-31T01:16:13;10.38;;;4.75;;
14080;SDS011;7116;52.152;5.392;2023-07-31T01:27:34;7.43;;;3.55;;
14080;SDS011;7116;52.152;5.392;2023-07-31T01:30:08;7.78;;;3.67;;
14080;SDS011;7116;52.152;5.392;2023-07-31T01:32:36;7.20;;;3.30;;
14080;SDS011;7116;52.152;5.392;2023-07-31T01:35:01;7.80;;;3.60;;
14080;SDS011;7116;52.152;5.392;2023-07-31T01:37:29;6.40;;;3.30;;
14080;SDS011;7116;52.152;5.392;2023-07-31T01:39:55;6.20;;;3.55;;
14080;SDS011;7116;52.152;5.392;2023-07-31T01:42:20;5.50;;;3.50;;
14080;SDS011;7116;52.152;5.392;2023-07-31T01:44:51;5.22;;;3.08;;
14080;SDS011;7116;52.152;5.392;2023-07-31T01:47:21;3.92;;;2.63;;
14080;SDS011;7116;52.152;5.392;2023-07-31T01:49:48;5.35;;;3.08;;
14080;SDS011;7116;52.152;5.392;2023-07-31T01:58:46;12.95;;;4.78;;
14080;SDS011;7116;52.152;5.392;2023-07-31T02:01:19;8.77;;;4.15;;
14080;SDS011;7116;52.152;5.392;2023-07-31T02:09:58;15.23;;;4.75;;
14080;SDS011;7116;52.152;5.392;2023-07-31T02:15:51;15.32;;;4.95;;
14080;SDS011;7116;52.152;5.392;2023-07-31T02:18:19;13.15;;;4.63;;
14080;SDS011;7116;52.152;5.392;2023-07-31T02:20:56;12.53;;;5.17;;
14080;SDS011;7116;52.152;5.392;2023-07-31T02:26:37;11.70;;;4.80;;
14080;SDS011;7116;52.152;5.392;2023-07-31T02:32:13;12.23;;;5.32;;
14080;SDS011;7116;52.152;5.392;2023-07-31T02:34:41;14.70;;;5.33;;
14080;SDS011;7116;52.152;5.392;2023-07-31T02:37:16;13.73;;;4.88;;
14080;SDS011;7116;52.152;5.392;2023-07-31T02:39:59;13.90;;;5.20;;
14080;SDS011;7116;52.152;5.392;2023-07-31T02:52:03;15.75;;;5.68;;
14080;SDS011;7116;52.152;5.392;2023-07-31T02:54:38;11.65;;;5.45;;
14080;SDS011;7116;52.152;5.392;2023-07-31T03:00:12;17.67;;;5.90;;
14080;SDS011;7116;52.152;5.392;2023-07-31T03:15:02;16.67;;;5.93;;
14080;SDS011;7116;52.152;5.392;2023-07-31T03:17:50;20.80;;;7.05;;
14080;SDS011;7116;52.152;5.392;2023-07-31T03:20:16;19.45;;;6.28;;
14080;SDS011;7116;52.152;5.392;2023-07-31T03:25:39;19.30;;;6.72;;
14080;SDS011;7116;52.152;5.392;2023-07-31T03:31:21;17.13;;;6.72;;
14080;SDS011;7116;52.152;5.392;2023-07-31T03:33:52;18.70;;;6.53;;
14080;SDS011;7116;52.152;5.392;2023-07-31T03:48:40;17.27;;;5.63;;
14080;SDS011;7116;52.152;5.392;2023-07-31T03:54:31;19.70;;;6.20;;
14080;SDS011;7116;52.152;5.392;2023-07-31T04:00:18;19.70;;;6.55;;
14080;SDS011;7116;52.152;5.392;2023-07-31T04:02:59;22.07;;;6.80;;
14080;SDS011;7116;52.152;5.392;2023-07-31T04:05:45;20.02;;;6.80;;
14080;SDS011;7116;52.152;5.392;2023-07-31T04:08:39;19.17;;;6.47;;
14080;SDS011;7116;52.152;5.392;2023-07-31T04:14:50;17.75;;;6.68;;
14080;SDS011;7116;52.152;5.392;2023-07-31T04:20:27;16.25;;;7.40;;
14080;SDS011;7116;52.152;5.392;2023-07-31T04:29:29;20.20;;;7.03;;
14080;SDS011;7116;52.152;5.392;2023-07-31T04:31:57;14.30;;;6.07;;
14080;SDS011;7116;52.152;5.392;2023-07-31T04:34:41;13.82;;;5.88;;
14080;SDS011;7116;52.152;5.392;2023-07-31T04:37:34;18.50;;;6.47;;
14080;SDS011;7116;52.152;5.392;2023-07-31T04:43:00;16.15;;;6.18;;
14080;SDS011;7116;52.152;5.392;2023-07-31T04:48:41;16.65;;;5.55;;
14080;SDS011;7116;52.152;5.392;2023-07-31T04:51:06;15.63;;;5.90;;
14080;SDS011;7116;52.152;5.392;2023-07-31T04:53:32;13.13;;;5.47;;
14080;SDS011;7116;52.152;5.392;2023-07-31T04:56:00;17.63;;;7.03;;
14080;SDS011;7116;52.152;5.392;2023-07-31T04:58:29;16.73;;;5.70;;
14080;SDS011;7116;52.152;5.392;2023-07-31T05:00:54;16.83;;;6.30;;
14080;SDS011;7116;52.152;5.392;2023-07-31T05:03:20;17.10;;;5.23;;
14080;SDS011;7116;52.152;5.392;2023-07-31T05:05:55;15.17;;;6.67;;
14080;SDS011;7116;52.152;5.392;2023-07-31T05:08:26;15.27;;;5.70;;
14080;SDS011;7116;52.152;5.392;2023-07-31T05:17:03;15.95;;;5.75;;
14080;SDS011;7116;52.152;5.392;2023-07-31T05:19:28;13.53;;;5.10;;
14080;SDS011;7116;52.152;5.392;2023-07-31T05:21:53;13.57;;;4.70;;
14080;SDS011;7116;52.152;5.392;2023-07-31T05:24:36;10.67;;;4.43;;
14080;SDS011;7116;52.152;5.392;2023-07-31T05:27:02;11.75;;;5.18;;
14080;SDS011;7116;52.152;5.392;2023-07-31T05:29:27;10.33;;;4.80;;
14080;SDS011;7116;52.152;5.392;2023-07-31T05:31:55;11.87;;;5.33;;
14080;SDS011;7116;52.152;5.392;2023-07-31T05:34:38;10.30;;;4.70;;
14080;SDS011;7116;52.152;5.392;2023-07-31T05:37:06;11.48;;;5.38;;
14080;SDS011;7116;52.152;5.392;2023-07-31T05:39:41;9.30;;;4.80;;
14080;SDS011;7116;52.152;5.392;2023-07-31T05:42:09;12.10;;;4.63;;
14080;SDS011;7116;52.152;5.392;2023-07-31T05:44:34;7.30;;;3.53;;
14080;SDS011;7116;52.152;5.392;2023-07-31T05:47:00;10.17;;;3.67;;
14080;SDS011;7116;52.152;5.392;2023-07-31T05:49:45;6.03;;;3.80;;
14080;SDS011;7116;52.152;5.392;2023-07-31T05:55:34;7.03;;;3.67;;
14080;SDS011;7116;52.152;5.392;2023-07-31T05:58:29;7.18;;;3.50;;
14080;SDS011;7116;52.152;5.392;2023-07-31T06:01:31;9.93;;;4.20;;
14080;SDS011;7116;52.152;5.392;2023-07-31T06:04:16;10.33;;;4.27;;
14080;SDS011;7116;52.152;5.392;2023-07-31T06:06:51;8.02;;;4.63;;
14080;SDS011;7116;52.152;5.392;2023-07-31T06:09:16;10.05;;;4.10;;
14080;SDS011;7116;52.152;5.392;2023-07-31T06:11:41;11.60;;;4.77;;
14080;SDS011;7116;52.152;5.392;2023-07-31T06:14:09;8.23;;;4.28;;
14080;SDS011;7116;52.152;5.392;2023-07-31T06:16:34;6.97;;;4.20;;
14080;SDS011;7116;52.152;5.392;2023-07-31T06:19:00;9.33;;;4.43;;
14080;SDS011;7116;52.152;5.392;2023-07-31T06:21:25;7.20;;;3.80;;
14080;SDS011;7116;52.152;5.392;2023-07-31T06:23:50;10.00;;;4.07;;
14080;SDS011;7116;52.152;5.392;2023-07-31T06:26:16;6.73;;;3.57;;
14080;SDS011;7116;52.152;5.392;2023-07-31T06:28:41;7.30;;;3.90;;
14080;SDS011;7116;52.152;5.392;2023-07-31T06:31:09;9.60;;;3.97;;
14080;SDS011;7116;52.152;5.392;2023-07-31T06:33:37;7.32;;;4.35;;
14080;SDS011;7116;52.152;5.392;2023-07-31T06:36:02;7.77;;;3.67;;
14080;SDS011;7116;52.152;5.392;2023-07-31T06:38:30;8.23;;;4.10;;
14080;SDS011;7116;52.152;5.392;2023-07-31T06:41:00;10.30;;;4.15;;
14080;SDS011;7116;52.152;5.392;2023-07-31T06:43:35;8.00;;;3.63;;
14080;SDS011;7116;52.152;5.392;2023-07-31T06:46:10;8.98;;;4.35;;
14080;SDS011;7116;52.152;5.392;2023-07-31T06:48:58;6.27;;;3.77;;
14080;SDS011;7116;52.152;5.392;2023-07-31T07:13:03;8.05;;;3.55;;
14080;SDS011;7116;52.152;5.392;2023-07-31T07:18:42;6.27;;;3.20;;
14080;SDS011;7116;52.152;5.392;2023-07-31T07:21:27;5.70;;;3.00;;
14080;SDS011;7116;52.152;5.392;2023-07-31T07:23:55;4.63;;;3.23;;
14080;SDS011;7116;52.152;5.392;2023-07-31T07:38:38;6.18;;;3.30;;
14080;SDS011;7116;52.152;5.392;2023-07-31T07:41:16;4.82;;;3.20;;
14080;SDS011;7116;52.152;5.392;2023-07-31T07:43:41;5.73;;;3.37;;
14080;SDS011;7116;52.152;5.392;2023-07-31T07:46:06;5.93;;;3.17;;
14080;SDS011;7116;52.152;5.392;2023-07-31T07:51:29;4.80;;;2.80;;
14080;SDS011;7116;52.152;5.392;2023-07-31T08:03:17;8.32;;;2.50;;
14080;SDS011;7116;52.152;5.392;2023-07-31T08:09:14;4.90;;;3.22;;
14080;SDS011;7116;52.152;5.392;2023-07-31T08:11:59;4.47;;;2.30;;
14080;SDS011;7116;52.152;5.392;2023-07-31T08:14:30;2.78;;;2.20;;
14080;SDS011;7116;52.152;5.392;2023-07-31T08:17:23;3.80;;;2.63;;
14080;SDS011;7116;52.152;5.392;2023-07-31T08:20:17;4.32;;;2.50;;
14080;SDS011;7116;52.152;5.392;2023-07-31T08:26:04;2.77;;;2.10;;
14080;SDS011;7116;52.152;5.392;2023-07-31T08:34:53;2.47;;;2.08;;
14080;SDS011;7116;52.152;5.392;2023-07-31T08:46:49;2.83;;;2.03;;
14080;SDS011;7116;52.152;5.392;2023-07-31T08:49:17;4.40;;;2.40;;
14080;SDS011;7116;52.152;5.392;2023-07-31T08:51:45;2.30;;;1.80;;
14080;SDS011;7116;52.152;5.392;2023-07-31T08:54:14;3.70;;;2.30;;
14080;SDS011;7116;52.152;5.392;2023-07-31T08:57:00;3.08;;;1.90;;
14080;SDS011;7116;52.152;5.392;2023-07-31T08:59:35;3.42;;;2.38;;
14080;SDS011;7116;52.152;5.392;2023-07-31T09:02:31;2.77;;;1.97;;
14080;SDS011;7116;52.152;5.392;2023-07-31T09:08:26;2.60;;;2.00;;
14080;SDS011;7116;52.152;5.392;2023-07-31T09:10:57;2.33;;;1.92;;
14080;SDS011;7116;52.152;5.392;2023-07-31T09:13:26;2.42;;;2.22;;
14080;SDS011;7116;52.152;5.392;2023-07-31T09:16:04;3.13;;;2.07;;
14080;SDS011;7116;52.152;5.392;2023-07-31T09:21:56;2.75;;;2.28;;
14080;SDS011;7116;52.152;5.392;2023-07-31T09:24:36;2.78;;;1.90;;
14080;SDS011;7116;52.152;5.392;2023-07-31T09:27:22;2.75;;;2.35;;
14080;SDS011;7116;52.152;5.392;2023-07-31T09:30:02;3.37;;;2.80;;
14080;SDS011;7116;52.152;5.392;2023-07-31T09:35:55;2.63;;;2.00;;
14080;SDS011;7116;52.152;5.392;2023-07-31T09:41:43;2.83;;;2.53;;
14080;SDS011;7116;52.152;5.392;2023-07-31T09:44:08;2.67;;;2.13;;
14080;SDS011;7116;52.152;5.392;2023-07-31T09:49:45;3.67;;;2.80;;
14080;SDS011;7116;52.152;5.392;2023-07-31T09:55:54;4.63;;;2.40;;
14080;SDS011;7116;52.152;5.392;2023-07-31T10:04:30;3.13;;;2.60;;
14080;SDS011;7116;52.152;5.392;2023-07-31T10:07:23;4.88;;;2.55;;
14080;SDS011;7116;52.152;5.392;2023-07-31T10:10:12;2.83;;;2.08;;
14080;SDS011;7116;52.152;5.392;2023-07-31T10:15:38;3.50;;;2.00;;
14080;SDS011;7116;52.152;5.392;2023-07-31T10:21:27;2.42;;;2.05;;
14080;SDS011;7116;52.152;5.392;2023-07-31T10:24:03;3.38;;;2.17;;
14080;SDS011;7116;52.152;5.392;2023-07-31T10:29:56;4.75;;;3.33;;
14080;SDS011;7116;52.152;5.392;2023-07-31T10:32:31;4.10;;;2.70;;
14080;SDS011;7116;52.152;5.392;2023-07-31T10:40:52;5.25;;;3.28;;
14080;SDS011;7116;52.152;5.392;2023-07-31T10:44:03;4.57;;;2.90;;
14080;SDS011;7116;52.152;5.392;2023-07-31T10:46:48;5.40;;;3.33;;
14080;SDS011;7116;52.152;5.392;2023-07-31T10:49:24;4.43;;;3.17;;
14080;SDS011;7116;52.152;5.392;2023-07-31T10:52:13;8.60;;;4.13;;
14080;SDS011;7116;52.152;5.392;2023-07-31T10:54:48;4.15;;;3.00;;
14080;SDS011;7116;52.152;5.392;2023-07-31T10:57:35;5.18;;;3.33;;
14080;SDS011;7116;52.152;5.392;2023-07-31T11:00:17;5.75;;;3.80;;
14080;SDS011;7116;52.152;5.392;2023-07-31T11:15:02;5.63;;;3.17;;
14080;SDS011;7116;52.152;5.392;2023-07-31T11:17:45;3.03;;;2.65;;
14080;SDS011;7116;52.152;5.392;2023-07-31T11:23:37;6.63;;;2.75;;
14080;SDS011;7116;52.152;5.392;2023-07-31T11:29:27;4.90;;;2.72;;
14080;SDS011;7116;52.152;5.392;2023-07-31T11:35:12;4.03;;;2.60;;
14080;SDS011;7116;52.152;5.392;2023-07-31T11:37:42;2.55;;;2.00;;
14080;SDS011;7116;52.152;5.392;2023-07-31T11:49:36;4.90;;;2.30;;
14080;SDS011;7116;52.152;5.392;2023-07-31T12:04:58;3.97;;;3.25;;
14080;SDS011;7116;52.152;5.392;2023-07-31T12:13:44;6.30;;;3.10;;
14080;SDS011;7116;52.152;5.392;2023-07-31T12:16:25;4.35;;;2.60;;
14080;SDS011;7116;52.152;5.392;2023-07-31T12:22:34;7.05;;;3.22;;
14080;SDS011;7116;52.152;5.392;2023-07-31T12:37:53;2.80;;;2.40;;
14080;SDS011;7116;52.152;5.392;2023-07-31T12:52:42;5.07;;;2.40;;
14080;SDS011;7116;52.152;5.392;2023-07-31T12:58:15;5.53;;;3.03;;
14080;SDS011;7116;52.152;5.392;2023-07-31T13:00:50;3.60;;;3.20;;
14080;SDS011;7116;52.152;5.392;2023-07-31T13:03:33;4.43;;;2.85;;
14080;SDS011;7116;52.152;5.392;2023-07-31T13:06:27;3.85;;;2.80;;
14080;SDS011;7116;52.152;5.392;2023-07-31T13:09:10;3.40;;;2.80;;
14080;SDS011;7116;52.152;5.392;2023-07-31T13:11:57;3.43;;;2.67;;
14080;SDS011;7116;52.152;5.392;2023-07-31T13:17:24;3.92;;;3.33;;
14080;SDS011;7116;52.152;5.392;2023-07-31T13:23:15;4.45;;;2.90;;
14080;SDS011;7116;52.152;5.392;2023-07-31T13:41:26;2.73;;;2.17;;
14080;SDS011;7116;52.152;5.392;2023-07-31T13:47:03;3.08;;;2.38;;
14080;SDS011;7116;52.152;5.392;2023-07-31T13:49:31;2.83;;;2.20;;
14080;SDS011;7116;52.152;5.392;2023-07-31T14:22:54;3.08;;;2.55;;
14080;SDS011;7116;52.152;5.392;2023-07-31T14:25:24;2.77;;;2.50;;
14080;SDS011;7116;52.152;5.392;2023-07-31T14:34:07;4.05;;;3.28;;
14080;SDS011;7116;52.152;5.392;2023-07-31T14:43:07;4.28;;;3.70;;
14080;SDS011;7116;52.152;5.392;2023-07-31T14:45:54;5.57;;;4.30;;
14080;SDS011;7116;52.152;5.392;2023-07-31T14:48:40;5.45;;;4.40;;
14080;SDS011;7116;52.152;5.392;2023-07-31T14:51:25;7.15;;;4.13;;
14080;SDS011;7116;52.152;5.392;2023-07-31T14:57:01;5.60;;;4.53;;
14080;SDS011;7116;52.152;5.392;2023-07-31T14:59:54;5.47;;;4.00;;
14080;SDS011;7116;52.152;5.392;2023-07-31T15:02:57;4.50;;;3.80;;
14080;SDS011;7116;52.152;5.392;2023-07-31T15:05:43;4.60;;;3.75;;
14080;SDS011;7116;52.152;5.392;2023-07-31T15:08:11;5.20;;;3.40;;
14080;SDS011;7116;52.152;5.392;2023-07-31T15:10:47;6.10;;;3.30;;
14080;SDS011;7116;52.152;5.392;2023-07-31T15:13:35;4.43;;;3.50;;
14080;SDS011;7116;52.152;5.392;2023-07-31T15:22:20;4.03;;;3.33;;
14080;SDS011;7116;52.152;5.392;2023-07-31T15:28:03;3.80;;;2.83;;
14080;SDS011;7116;52.152;5.392;2023-07-31T15:30:30;4.57;;;3.58;;
14080;SDS011;7116;52.152;5.392;2023-07-31T15:32:55;11.60;;;3.80;;
14080;SDS011;7116;52.152;5.392;2023-07-31T15:35:20;4.27;;;3.00;;
14080;SDS011;7116;52.152;5.392;2023-07-31T15:37:46;4.13;;;3.20;;
14080;SDS011;7116;52.152;5.392;2023-07-31T15:40:11;4.67;;;3.27;;
14080;SDS011;7116;52.152;5.392;2023-07-31T15:42:36;3.93;;;3.23;;
14080;SDS011;7116;52.152;5.392;2023-07-31T15:45:04;4.28;;;3.80;;
14080;SDS011;7116;52.152;5.392;2023-07-31T15:47:30;5.60;;;3.13;;
14080;SDS011;7116;52.152;5.392;2023-07-31T15:49:55;4.23;;;3.70;;
14080;SDS011;7116;52.152;5.392;2023-07-31T15:52:22;4.20;;;3.47;;
14080;SDS011;7116;52.152;5.392;2023-07-31T15:54:48;4.03;;;3.30;;
14080;SDS011;7116;52.152;5.392;2023-07-31T15:57:13;4.03;;;3.10;;
14080;SDS011;7116;52.152;5.392;2023-07-31T15:59:38;3.47;;;2.67;;
14080;SDS011;7116;52.152;5.392;2023-07-31T16:02:03;4.07;;;2.73;;
14080;SDS011;7116;52.152;5.392;2023-07-31T16:04:29;5.17;;;2.70;;
14080;SDS011;7116;52.152;5.392;2023-07-31T16:06:54;3.40;;;2.70;;
14080;SDS011;7116;52.152;5.392;2023-07-31T16:09:19;4.40;;;2.40;;
14080;SDS011;7116;52.152;5.392;2023-07-31T16:11:44;2.90;;;2.30;;
14080;SDS011;7116;52.152;5.392;2023-07-31T16:14:11;3.65;;;2.08;;
14080;SDS011;7116;52.152;5.392;2023-07-31T16:16:36;3.90;;;2.70;;
14080;SDS011;7116;52.152;5.392;2023-07-31T16:19:01;3.67;;;2.50;;
14080;SDS011;7116;52.152;5.392;2023-07-31T16:21:27;2.37;;;1.90;;
14080;SDS011;7116;52.152;5.392;2023-07-31T16:23:52;2.33;;;2.10;;
14080;SDS011;7116;52.152;5.392;2023-07-31T16:26:17;2.93;;;2.33;;
14080;SDS011;7116;52.152;5.392;2023-07-31T16:28:42;2.47;;;1.90;;
14080;SDS011;7116;52.152;5.392;2023-07-31T16:31:08;2.67;;;2.20;;
14080;SDS011;7116;52.152;5.392;2023-07-31T16:33:33;3.00;;;2.17;;
14080;SDS011;7116;52.152;5.392;2023-07-31T16:35:58;4.37;;;2.40;;
14080;SDS011;7116;52.152;5.392;2023-07-31T16:38:23;2.35;;;2.10;;
14080;SDS011;7116;52.152;5.392;2023-07-31T16:40:49;2.80;;;2.13;;
14080;SDS011;7116;52.152;5.392;2023-07-31T16:43:14;2.60;;;1.70;;
14080;SDS011;7116;52.152;5.392;2023-07-31T16:45:39;2.37;;;2.13;;
14080;SDS011;7116;52.152;5.392;2023-07-31T16:48:05;2.47;;;2.10;;
14080;SDS011;7116;52.152;5.392;2023-07-31T16:50:48;1.90;;;1.70;;
14080;SDS011;7116;52.152;5.392;2023-07-31T16:53:13;2.10;;;1.75;;
14080;SDS011;7116;52.152;5.392;2023-07-31T16:55:47;2.77;;;2.00;;
14080;SDS011;7116;52.152;5.392;2023-07-31T16:58:33;2.58;;;1.70;;
14080;SDS011;7116;52.152;5.392;2023-07-31T17:01:22;2.72;;;1.85;;
14080;SDS011;7116;52.152;5.392;2023-07-31T17:03:49;3.00;;;1.97;;
14080;SDS011;7116;52.152;5.392;2023-07-31T17:06:32;2.00;;;1.80;;
14080;SDS011;7116;52.152;5.392;2023-07-31T17:09:24;3.42;;;1.70;;
14080;SDS011;7116;52.152;5.392;2023-07-31T17:11:54;3.13;;;1.90;;
14080;SDS011;7116;52.152;5.392;2023-07-31T17:14:30;2.30;;;1.85;;
14080;SDS011;7116;52.152;5.392;2023-07-31T17:16:55;2.33;;;2.10;;
14080;SDS011;7116;52.152;5.392;2023-07-31T17:19:20;1.73;;;1.40;;
14080;SDS011;7116;52.152;5.392;2023-07-31T17:21:53;2.70;;;1.92;;
14080;SDS011;7116;52.152;5.392;2023-07-31T17:24:18;1.53;;;1.43;;
14080;SDS011;7116;52.152;5.392;2023-07-31T17:26:43;4.30;;;1.57;;
14080;SDS011;7116;52.152;5.392;2023-07-31T17:29:13;2.17;;;1.67;;
14080;SDS011;7116;52.152;5.392;2023-07-31T17:31:39;1.70;;;1.52;;
14080;SDS011;7116;52.152;5.392;2023-07-31T17:34:06;1.80;;;1.70;;
14080;SDS011;7116;52.152;5.392;2023-07-31T17:36:31;1.60;;;1.43;;
14080;SDS011;7116;52.152;5.392;2023-07-31T17:38:57;1.92;;;1.73;;
14080;SDS011;7116;52.152;5.392;2023-07-31T17:41:22;2.13;;;1.93;;
14080;SDS011;7116;52.152;5.392;2023-07-31T17:43:49;2.53;;;2.33;;
14080;SDS011;7116;52.152;5.392;2023-07-31T17:46:14;2.30;;;2.10;;
14080;SDS011;7116;52.152;5.392;2023-07-31T17:48:39;1.70;;;1.60;;
14080;SDS011;7116;52.152;5.392;2023-07-31T17:51:06;2.85;;;2.08;;
14080;SDS011;7116;52.152;5.392;2023-07-31T17:53:32;2.53;;;1.87;;
14080;SDS011;7116;52.152;5.392;2023-07-31T17:55:57;2.17;;;1.73;;
14080;SDS011;7116;52.152;5.392;2023-07-31T17:58:22;2.37;;;1.97;;
14080;SDS011;7116;52.152;5.392;2023-07-31T18:00:47;3.27;;;2.10;;
14080;SDS011;7116;52.152;5.392;2023-07-31T18:03:12;3.17;;;2.40;;
14080;SDS011;7116;52.152;5.392;2023-07-31T18:05:38;2.63;;;2.30;;
14080;SDS011;7116;52.152;5.392;2023-07-31T18:08:03;2.70;;;1.97;;
14080;SDS011;7116;52.152;5.392;2023-07-31T18:10:28;2.40;;;1.90;;
14080;SDS011;7116;52.152;5.392;2023-07-31T18:12:54;2.00;;;1.80;;
14080;SDS011;7116;52.152;5.392;2023-07-31T18:15:19;3.27;;;2.27;;
14080;SDS011;7116;52.152;5.392;2023-07-31T18:17:44;4.70;;;2.43;;
14080;SDS011;7116;52.152;5.392;2023-07-31T18:20:10;2.70;;;2.20;;
14080;SDS011;7116;52.152;5.392;2023-07-31T18:22:36;4.50;;;2.50;;
14080;SDS011;7116;52.152;5.392;2023-07-31T18:25:01;4.53;;;2.60;;
14080;SDS011;7116;52.152;5.392;2023-07-31T18:27:27;2.97;;;2.20;;
14080;SDS011;7116;52.152;5.392;2023-07-31T18:29:52;2.80;;;2.50;;
14080;SDS011;7116;52.152;5.392;2023-07-31T18:32:17;3.73;;;2.40;;
14080;SDS011;7116;52.152;5.392;2023-07-31T18:34:42;4.00;;;2.80;;
14080;SDS011;7116;52.152;5.392;2023-07-31T18:37:07;3.10;;;2.17;;
14080;SDS011;7116;52.152;5.392;2023-07-31T18:39:33;5.63;;;2.53;;
14080;SDS011;7116;52.152;5.392;2023-07-31T18:41:58;4.13;;;2.83;;
14080;SDS011;7116;52.152;5.392;2023-07-31T18:44:23;3.40;;;2.50;;
14080;SDS011;7116;52.152;5.392;2023-07-31T18:46:48;2.90;;;2.13;;
14080;SDS011;7116;52.152;5.392;2023-07-31T18:49:14;3.67;;;2.33;;
14080;SDS011;7116;52.152;5.392;2023-07-31T18:51:39;3.40;;;2.13;;
14080;SDS011;7116;52.152;5.392;2023-07-31T18:54:04;5.23;;;2.97;;
14080;SDS011;7116;52.152;5.392;2023-07-31T18:56:30;4.80;;;2.37;;
14080;SDS011;7116;52.152;5.392;2023-07-31T18:58:57;3.67;;;2.47;;
14080;SDS011;7116;52.152;5.392;2023-07-31T19:01:28;3.20;;;2.40;;
14080;SDS011;7116;52.152;5.392;2023-07-31T19:03:56;4.45;;;2.80;;
14080;SDS011;7116;52.152;5.392;2023-07-31T19:06:23;6.20;;;2.53;;
14080;SDS011;7116;52.152;5.392;2023-07-31T19:08:48;3.37;;;2.40;;
14080;SDS011;7116;52.152;5.392;2023-07-31T19:11:13;5.40;;;2.73;;
14080;SDS011;7116;52.152;5.392;2023-07-31T19:13:39;3.73;;;2.20;;
14080;SDS011;7116;52.152;5.392;2023-07-31T19:16:04;4.07;;;2.27;;
14080;SDS011;7116;52.152;5.392;2023-07-31T19:18:30;6.33;;;3.30;;
14080;SDS011;7116;52.152;5.392;2023-07-31T19:20:55;4.90;;;2.65;;
14080;SDS011;7116;52.152;5.392;2023-07-31T19:23:21;4.50;;;2.43;;
14080;SDS011;7116;52.152;5.392;2023-07-31T19:25:46;4.23;;;2.57;;
14080;SDS011;7116;52.152;5.392;2023-07-31T19:28:12;5.47;;;2.80;;
14080;SDS011;7116;52.152;5.392;2023-07-31T19:30:38;3.55;;;2.53;;
14080;SDS011;7116;52.152;5.392;2023-07-31T19:33:04;7.75;;;2.30;;
14080;SDS011;7116;52.152;5.392;2023-07-31T19:35:29;4.77;;;2.63;;
14080;SDS011;7116;52.152;5.392;2023-07-31T19:37:55;4.77;;;2.80;;
14080;SDS011;7116;52.152;5.392;2023-07-31T19:40:22;4.77;;;2.00;;
14080;SDS011;7116;52.152;5.392;2023-07-31T19:42:47;5.53;;;2.33;;
14080;SDS011;7116;52.152;5.392;2023-07-31T19:45:13;3.20;;;2.70;;
14080;SDS011;7116;52.152;5.392;2023-07-31T19:47:38;5.87;;;2.23;;
14080;SDS011;7116;52.152;5.392;2023-07-31T19:50:03;6.73;;;3.10;;
14080;SDS011;7116;52.152;5.392;2023-07-31T19:52:28;3.27;;;2.53;;
14080;SDS011;7116;52.152;5.392;2023-07-31T19:54:54;4.47;;;2.30;;
14080;SDS011;7116;52.152;5.392;2023-07-31T19:57:19;4.57;;;2.57;;
14080;SDS011;7116;52.152;5.392;2023-07-31T19:59:44;4.27;;;2.70;;
14080;SDS011;7116;52.152;5.392;2023-07-31T20:02:09;6.60;;;2.93;;
14080;SDS011;7116;52.152;5.392;2023-07-31T20:04:35;4.17;;;2.60;;
14080;SDS011;7116;52.152;5.392;2023-07-31T20:07:00;5.07;;;2.80;;
14080;SDS011;7116;52.152;5.392;2023-07-31T20:09:25;7.93;;;3.80;;
14080;SDS011;7116;52.152;5.392;2023-07-31T20:11:51;6.37;;;3.27;;
14080;SDS011;7116;52.152;5.392;2023-07-31T20:14:16;4.67;;;2.60;;
14080;SDS011;7116;52.152;5.392;2023-07-31T20:16:41;5.40;;;2.87;;
14080;SDS011;7116;52.152;5.392;2023-07-31T20:19:12;6.67;;;2.70;;
14080;SDS011;7116;52.152;5.392;2023-07-31T20:21:37;5.57;;;2.20;;
14080;SDS011;7116;52.152;5.392;2023-07-31T20:24:04;5.85;;;2.70;;
14080;SDS011;7116;52.152;5.392;2023-07-31T20:26:29;5.80;;;2.40;;
14080;SDS011;7116;52.152;5.392;2023-07-31T20:28:54;5.60;;;2.60;;
14080;SDS011;7116;52.152;5.392;2023-07-31T20:31:19;7.93;;;2.70;;
14080;SDS011;7116;52.152;5.392;2023-07-31T20:33:46;4.93;;;2.40;;
14080;SDS011;7116;52.152;5.392;2023-07-31T20:36:11;3.97;;;2.77;;
14080;SDS011;7116;52.152;5.392;2023-07-31T20:38:36;5.63;;;2.47;;
14080;SDS011;7116;52.152;5.392;2023-07-31T20:41:01;9.63;;;2.63;;
14080;SDS011;7116;52.152;5.392;2023-07-31T20:43:26;5.33;;;2.60;;
14080;SDS011;7116;52.152;5.392;2023-07-31T20:45:52;5.13;;;2.63;;
14080;SDS011;7116;52.152;5.392;2023-07-31T20:48:17;6.13;;;2.50;;
14080;SDS011;7116;52.152;5.392;2023-07-31T20:50:43;5.18;;;3.15;;
14080;SDS011;7116;52.152;5.392;2023-07-31T20:53:08;7.50;;;3.07;;
14080;SDS011;7116;52.152;5.392;2023-07-31T20:55:33;5.40;;;2.60;;
14080;SDS011;7116;52.152;5.392;2023-07-31T20:57:58;7.27;;;2.53;;
14080;SDS011;7116;52.152;5.392;2023-07-31T21:00:23;5.97;;;2.40;;
14080;SDS011;7116;52.152;5.392;2023-07-31T21:02:49;7.87;;;2.90;;
14080;SDS011;7116;52.152;5.392;2023-07-31T21:05:14;4.20;;;2.00;;
14080;SDS011;7116;52.152;5.392;2023-07-31T21:07:39;5.40;;;2.37;;
14080;SDS011;7116;52.152;5.392;2023-07-31T21:10:07;6.28;;;3.28;;
14080;SDS011;7116;52.152;5.392;2023-07-31T21:12:33;8.20;;;2.80;;
14080;SDS011;7116;52.152;5.392;2023-07-31T21:14:58;6.47;;;2.90;;
14080;SDS011;7116;52.152;5.392;2023-07-31T21:17:23;5.63;;;2.40;;
14080;SDS011;7116;52.152;5.392;2023-07-31T21:19:49;9.93;;;3.40;;
14080;SDS011;7116;52.152;5.392;2023-07-31T21:22:16;6.23;;;3.47;;
14080;SDS011;7116;52.152;5.392;2023-07-31T21:24:42;4.85;;;2.92;;
14080;SDS011;7116;52.152;5.392;2023-07-31T21:27:07;6.93;;;2.77;;
14080;SDS011;7116;52.152;5.392;2023-07-31T21:29:32;7.90;;;2.50;;
14080;SDS011;7116;52.152;5.392;2023-07-31T21:31:57;6.50;;;2.90;;
14080;SDS011;7116;52.152;5.392;2023-07-31T21:34:23;6.50;;;2.60;;
14080;SDS011;7116;52.152;5.392;2023-07-31T21:36:48;7.80;;;3.10;;
14080;SDS011;7116;52.152;5.392;2023-07-31T21:39:13;4.87;;;2.43;;
14080;SDS011;7116;52.152;5.392;2023-07-31T21:41:39;5.43;;;2.67;;
14080;SDS011;7116;52.152;5.392;2023-07-31T21:44:04;4.57;;;2.20;;
14080;SDS011;7116;52.152;5.392;2023-07-31T21:46:29;6.63;;;2.60;;
14080;SDS011;7116;52.152;5.392;2023-07-31T21:48:54;6.17;;;2.73;;
14080;SDS011;7116;52.152;5.392;2023-07-31T21:51:19;5.23;;;2.53;;
14080;SDS011;7116;52.152;5.392;2023-07-31T21:53:52;13.20;;;2.80;;
14080;SDS011;7116;52.152;5.392;2023-07-31T21:56:17;5.43;;;2.40;;
14080;SDS011;7116;52.152;5.392;2023-07-31T21:58:42;4.10;;;2.23;;
14080;SDS011;7116;52.152;5.392;2023-07-31T22:01:10;7.43;;;2.80;;
14080;SDS011;7116;52.152;5.392;2023-07-31T22:03:35;6.47;;;2.50;;
14080;SDS011;7116;52.152;5.392;2023-07-31T22:06:02;5.87;;;2.90;;
14080;SDS011;7116;52.152;5.392;2023-07-31T22:08:27;3.67;;;2.20;;
14080;SDS011;7116;52.152;5.392;2023-07-31T22:10:52;5.47;;;2.37;;
14080;SDS011;7116;52.152;5.392;2023-07-31T22:13:17;6.10;;;2.30;;
14080;SDS011;7116;52.152;5.392;2023-07-31T22:15:42;7.77;;;3.13;;